sensor_id;sensor_type;location;lat;lon;timestamp;temperature;humidity
10344;DHT22;5217;43.960;10.954;2022-07-29T00:00:23;29.40;84.50
10344;DHT22;5217;43.960;10.954;2022-07-29T00:02:52;29.40;84.60
10344;DHT22;5217;43.960;10.954;2022-07-29T00:05:21;29.30;84.70
10344;DHT22;5217;43.960;10.954;2022-07-29T00:07:50;29.40;84.80
10344;DHT22;5217;43.960;10.954;2022-07-29T00:10:18;29.40;84.70
10344;DHT22;5217;43.960;10.954;2022-07-29T00:12:47;29.40;84.80
10344;DHT22;5217;43.960;10.954;2022-07-29T00:15:15;29.40;85.00
10344;DHT22;5217;43.960;10.954;2022-07-29T00:17:44;29.40;85.00
10344;DHT22;5217;43.960;10.954;2022-07-29T00:20:14;29.40;84.80
10344;DHT22;5217;43.960;10.954;2022-07-29T00:22:42;29.40;84.90
10344;DHT22;5217;43.960;10.954;2022-07-29T00:25:12;29.40;84.70
10344;DHT22;5217;43.960;10.954;2022-07-29T00:27:41;29.40;84.80
10344;DHT22;5217;43.960;10.954;2022-07-29T00:30:09;29.40;84.90
10344;DHT22;5217;43.960;10.954;2022-07-29T00:32:38;29.40;85.10
10344;DHT22;5217;43.960;10.954;2022-07-29T00:35:07;29.40;85.20
10344;DHT22;5217;43.960;10.954;2022-07-29T00:37:55;29.30;85.20
10344;DHT22;5217;43.960;10.954;2022-07-29T00:40:23;29.30;85.30
10344;DHT22;5217;43.960;10.954;2022-07-29T00:42:52;29.30;85.40
10344;DHT22;5217;43.960;10.954;2022-07-29T00:45:21;29.20;85.50
10344;DHT22;5217;43.960;10.954;2022-07-29T00:47:50;29.20;85.50
10344;DHT22;5217;43.960;10.954;2022-07-29T00:50:18;29.30;85.50
10344;DHT22;5217;43.960;10.954;2022-07-29T00:52:47;29.30;85.50
10344;DHT22;5217;43.960;10.954;2022-07-29T00:55:17;29.30;85.60
10344;DHT22;5217;43.960;10.954;2022-07-29T00:57:46;29.20;85.50
10344;DHT22;5217;43.960;10.954;2022-07-29T01:00:16;29.20;85.50
10344;DHT22;5217;43.960;10.954;2022-07-29T01:02:46;29.30;85.60
10344;DHT22;5217;43.960;10.954;2022-07-29T01:05:17;29.20;85.50
10344;DHT22;5217;43.960;10.954;2022-07-29T01:07:47;29.20;85.60
10344;DHT22;5217;43.960;10.954;2022-07-29T01:10:18;29.20;85.60
10344;DHT22;5217;43.960;10.954;2022-07-29T01:12:49;29.20;85.60
10344;DHT22;5217;43.960;10.954;2022-07-29T01:15:18;29.20;85.90
10344;DHT22;5217;43.960;10.954;2022-07-29T01:17:54;29.10;85.70
10344;DHT22;5217;43.960;10.954;2022-07-29T01:20:31;29.10;85.60
10344;DHT22;5217;43.960;10.954;2022-07-29T01:23:28;29.20;85.80
10344;DHT22;5217;43.960;10.954;2022-07-29T01:26:27;29.10;85.80
10344;DHT22;5217;43.960;10.954;2022-07-29T01:29:07;29.10;86.00
10344;DHT22;5217;43.960;10.954;2022-07-29T01:31:44;29.10;86.30
10344;DHT22;5217;43.960;10.954;2022-07-29T01:34:30;29.00;86.30
10344;DHT22;5217;43.960;10.954;2022-07-29T01:37:06;29.00;86.50
10344;DHT22;5217;43.960;10.954;2022-07-29T01:39:36;28.90;86.60
10344;DHT22;5217;43.960;10.954;2022-07-29T01:42:11;29.00;86.90
10344;DHT22;5217;43.960;10.954;2022-07-29T01:44:48;28.90;86.90
10344;DHT22;5217;43.960;10.954;2022-07-29T01:47:22;28.90;87.60
10344;DHT22;5217;43.960;10.954;2022-07-29T01:49:54;28.90;86.70
10344;DHT22;5217;43.960;10.954;2022-07-29T01:52:31;28.90;86.50
10344;DHT22;5217;43.960;10.954;2022-07-29T01:55:06;29.00;86.60
10344;DHT22;5217;43.960;10.954;2022-07-29T01:57:36;28.90;86.40
10344;DHT22;5217;43.960;10.954;2022-07-29T02:00:10;29.00;86.60
10344;DHT22;5217;43.960;10.954;2022-07-29T02:02:40;29.00;86.40
10344;DHT22;5217;43.960;10.954;2022-07-29T02:05:12;29.00;86.40
10344;DHT22;5217;43.960;10.954;2022-07-29T02:07:43;29.00;86.40
10344;DHT22;5217;43.960;10.954;2022-07-29T02:10:13;29.00;86.50
10344;DHT22;5217;43.960;10.954;2022-07-29T02:12:45;29.00;86.40
10344;DHT22;5217;43.960;10.954;2022-07-29T02:15:19;29.00;86.60
10344;DHT22;5217;43.960;10.954;2022-07-29T02:17:52;29.00;86.60
10344;DHT22;5217;43.960;10.954;2022-07-29T02:20:22;29.00;86.60
10344;DHT22;5217;43.960;10.954;2022-07-29T02:22:52;29.00;87.10
10344;DHT22;5217;43.960;10.954;2022-07-29T02:25:22;28.90;87.30
10344;DHT22;5217;43.960;10.954;2022-07-29T02:28:04;28.80;87.40
10344;DHT22;5217;43.960;10.954;2022-07-29T02:30:37;28.70;87.90
10344;DHT22;5217;43.960;10.954;2022-07-29T02:33:09;28.70;88.10
10344;DHT22;5217;43.960;10.954;2022-07-29T02:35:39;28.70;88.10
10344;DHT22;5217;43.960;10.954;2022-07-29T02:38:09;28.70;88.20
10344;DHT22;5217;43.960;10.954;2022-07-29T02:40:59;28.70;88.20
10344;DHT22;5217;43.960;10.954;2022-07-29T02:43:30;28.60;88.20
10344;DHT22;5217;43.960;10.954;2022-07-29T02:46:03;28.60;88.40
10344;DHT22;5217;43.960;10.954;2022-07-29T02:48:58;28.60;88.70
10344;DHT22;5217;43.960;10.954;2022-07-29T02:51:32;28.60;88.90
10344;DHT22;5217;43.960;10.954;2022-07-29T02:54:14;28.50;88.90
10344;DHT22;5217;43.960;10.954;2022-07-29T02:56:48;28.50;89.00
10344;DHT22;5217;43.960;10.954;2022-07-29T02:59:23;28.50;89.10
10344;DHT22;5217;43.960;10.954;2022-07-29T03:01:55;28.50;89.10
10344;DHT22;5217;43.960;10.954;2022-07-29T03:04:26;28.50;89.10
10344;DHT22;5217;43.960;10.954;2022-07-29T03:06:58;28.50;89.20
10344;DHT22;5217;43.960;10.954;2022-07-29T03:09:28;28.50;89.10
10344;DHT22;5217;43.960;10.954;2022-07-29T03:11:57;28.50;89.30
10344;DHT22;5217;43.960;10.954;2022-07-29T03:14:26;28.40;89.30
10344;DHT22;5217;43.960;10.954;2022-07-29T03:16:56;28.40;89.40
10344;DHT22;5217;43.960;10.954;2022-07-29T03:19:26;28.40;89.50
10344;DHT22;5217;43.960;10.954;2022-07-29T03:21:56;28.40;89.70
10344;DHT22;5217;43.960;10.954;2022-07-29T03:24:26;28.40;89.70
10344;DHT22;5217;43.960;10.954;2022-07-29T03:26:55;28.40;89.90
10344;DHT22;5217;43.960;10.954;2022-07-29T03:29:24;28.30;89.90
10344;DHT22;5217;43.960;10.954;2022-07-29T03:32:02;28.40;90.00
10344;DHT22;5217;43.960;10.954;2022-07-29T03:34:35;28.30;90.00
10344;DHT22;5217;43.960;10.954;2022-07-29T03:37:04;28.30;90.10
10344;DHT22;5217;43.960;10.954;2022-07-29T03:39:38;28.30;90.30
10344;DHT22;5217;43.960;10.954;2022-07-29T03:42:10;28.20;90.30
10344;DHT22;5217;43.960;10.954;2022-07-29T03:44:40;28.20;90.40
10344;DHT22;5217;43.960;10.954;2022-07-29T03:47:11;28.20;90.40
10344;DHT22;5217;43.960;10.954;2022-07-29T03:49:42;28.20;90.40
10344;DHT22;5217;43.960;10.954;2022-07-29T03:52:12;28.20;90.40
10344;DHT22;5217;43.960;10.954;2022-07-29T03:54:41;28.20;90.30
10344;DHT22;5217;43.960;10.954;2022-07-29T03:57:11;28.20;90.30
10344;DHT22;5217;43.960;10.954;2022-07-29T03:59:41;28.20;90.20
10344;DHT22;5217;43.960;10.954;2022-07-29T04:02:12;28.20;90.30
10344;DHT22;5217;43.960;10.954;2022-07-29T04:04:47;28.10;90.40
10344;DHT22;5217;43.960;10.954;2022-07-29T04:07:16;28.10;90.50
10344;DHT22;5217;43.960;10.954;2022-07-29T04:09:45;28.10;90.70
10344;DHT22;5217;43.960;10.954;2022-07-29T04:12:14;28.00;90.70
10344;DHT22;5217;43.960;10.954;2022-07-29T04:14:43;28.00;90.80
10344;DHT22;5217;43.960;10.954;2022-07-29T04:17:13;28.00;90.80
10344;DHT22;5217;43.960;10.954;2022-07-29T04:19:41;28.00;90.80
10344;DHT22;5217;43.960;10.954;2022-07-29T04:22:10;28.00;90.80
10344;DHT22;5217;43.960;10.954;2022-07-29T04:24:39;28.00;90.90
10344;DHT22;5217;43.960;10.954;2022-07-29T04:27:10;28.00;91.20
10344;DHT22;5217;43.960;10.954;2022-07-29T04:29:39;28.00;91.60
10344;DHT22;5217;43.960;10.954;2022-07-29T04:32:24;28.00;91.30
10344;DHT22;5217;43.960;10.954;2022-07-29T04:34:53;28.00;91.30
10344;DHT22;5217;43.960;10.954;2022-07-29T04:37:22;27.90;91.70
10344;DHT22;5217;43.960;10.954;2022-07-29T04:39:51;28.00;92.00
10344;DHT22;5217;43.960;10.954;2022-07-29T04:42:19;27.90;91.80
10344;DHT22;5217;43.960;10.954;2022-07-29T04:44:55;28.00;91.60
10344;DHT22;5217;43.960;10.954;2022-07-29T04:47:28;28.00;91.50
10344;DHT22;5217;43.960;10.954;2022-07-29T04:49:57;28.00;91.40
10344;DHT22;5217;43.960;10.954;2022-07-29T04:52:25;28.00;91.30
10344;DHT22;5217;43.960;10.954;2022-07-29T04:54:54;28.00;91.40
10344;DHT22;5217;43.960;10.954;2022-07-29T04:57:22;28.00;91.50
10344;DHT22;5217;43.960;10.954;2022-07-29T04:59:51;28.00;91.60
10344;DHT22;5217;43.960;10.954;2022-07-29T05:02:19;27.90;91.60
10344;DHT22;5217;43.960;10.954;2022-07-29T05:04:50;27.90;91.70
10344;DHT22;5217;43.960;10.954;2022-07-29T05:07:19;27.90;91.70
10344;DHT22;5217;43.960;10.954;2022-07-29T05:09:47;27.90;91.50
10344;DHT22;5217;43.960;10.954;2022-07-29T05:12:16;27.90;91.60
10344;DHT22;5217;43.960;10.954;2022-07-29T05:14:44;27.90;91.60
10344;DHT22;5217;43.960;10.954;2022-07-29T05:17:13;27.90;91.70
10344;DHT22;5217;43.960;10.954;2022-07-29T05:19:41;27.90;91.90
10344;DHT22;5217;43.960;10.954;2022-07-29T05:22:11;27.90;91.90
10344;DHT22;5217;43.960;10.954;2022-07-29T05:24:40;27.90;91.90
10344;DHT22;5217;43.960;10.954;2022-07-29T05:27:08;27.90;92.20
10344;DHT22;5217;43.960;10.954;2022-07-29T05:29:37;28.00;92.00
10344;DHT22;5217;43.960;10.954;2022-07-29T05:32:11;28.00;92.00
10344;DHT22;5217;43.960;10.954;2022-07-29T05:34:39;28.00;92.00
10344;DHT22;5217;43.960;10.954;2022-07-29T05:37:19;28.00;91.90
10344;DHT22;5217;43.960;10.954;2022-07-29T05:39:47;28.00;91.90
10344;DHT22;5217;43.960;10.954;2022-07-29T05:42:23;28.00;92.20
10344;DHT22;5217;43.960;10.954;2022-07-29T05:44:52;28.00;92.40
10344;DHT22;5217;43.960;10.954;2022-07-29T05:47:21;28.00;92.40
10344;DHT22;5217;43.960;10.954;2022-07-29T05:49:49;28.00;92.70
10344;DHT22;5217;43.960;10.954;2022-07-29T05:52:19;28.00;92.70
10344;DHT22;5217;43.960;10.954;2022-07-29T05:54:48;28.00;92.70
10344;DHT22;5217;43.960;10.954;2022-07-29T05:57:17;28.00;92.60
10344;DHT22;5217;43.960;10.954;2022-07-29T05:59:46;28.00;92.60
10344;DHT22;5217;43.960;10.954;2022-07-29T06:02:15;28.00;92.60
10344;DHT22;5217;43.960;10.954;2022-07-29T06:04:44;28.00;92.50
10344;DHT22;5217;43.960;10.954;2022-07-29T06:07:13;28.00;92.40
10344;DHT22;5217;43.960;10.954;2022-07-29T06:09:42;28.00;92.40
10344;DHT22;5217;43.960;10.954;2022-07-29T06:12:11;28.00;92.30
10344;DHT22;5217;43.960;10.954;2022-07-29T06:14:39;28.00;92.40
10344;DHT22;5217;43.960;10.954;2022-07-29T06:17:08;28.00;92.20
10344;DHT22;5217;43.960;10.954;2022-07-29T06:19:38;28.00;91.90
10344;DHT22;5217;43.960;10.954;2022-07-29T06:22:07;28.00;92.00
10344;DHT22;5217;43.960;10.954;2022-07-29T06:24:36;28.00;92.00
10344;DHT22;5217;43.960;10.954;2022-07-29T06:27:09;28.00;92.00
10344;DHT22;5217;43.960;10.954;2022-07-29T06:29:38;28.00;92.20
10344;DHT22;5217;43.960;10.954;2022-07-29T06:32:06;28.00;92.30
10344;DHT22;5217;43.960;10.954;2022-07-29T06:34:36;28.10;92.40
10344;DHT22;5217;43.960;10.954;2022-07-29T06:37:06;28.10;92.50
10344;DHT22;5217;43.960;10.954;2022-07-29T06:39:41;28.10;92.40
10344;DHT22;5217;43.960;10.954;2022-07-29T06:42:11;28.10;92.50
10344;DHT22;5217;43.960;10.954;2022-07-29T06:44:40;28.10;92.50
10344;DHT22;5217;43.960;10.954;2022-07-29T06:47:09;28.10;92.50
10344;DHT22;5217;43.960;10.954;2022-07-29T06:49:38;28.10;92.50
10344;DHT22;5217;43.960;10.954;2022-07-29T06:52:07;28.20;92.60
10344;DHT22;5217;43.960;10.954;2022-07-29T06:54:35;28.20;92.60
10344;DHT22;5217;43.960;10.954;2022-07-29T06:57:05;28.20;92.70
10344;DHT22;5217;43.960;10.954;2022-07-29T06:59:35;28.20;92.70
10344;DHT22;5217;43.960;10.954;2022-07-29T07:02:04;28.20;92.70
10344;DHT22;5217;43.960;10.954;2022-07-29T07:04:33;28.20;92.70
10344;DHT22;5217;43.960;10.954;2022-07-29T07:07:04;28.20;92.70
10344;DHT22;5217;43.960;10.954;2022-07-29T07:09:32;28.20;92.90
10344;DHT22;5217;43.960;10.954;2022-07-29T07:12:07;28.20;92.80
10344;DHT22;5217;43.960;10.954;2022-07-29T07:14:36;28.30;92.90
10344;DHT22;5217;43.960;10.954;2022-07-29T07:17:06;28.30;93.00
10344;DHT22;5217;43.960;10.954;2022-07-29T07:19:35;28.30;93.10
10344;DHT22;5217;43.960;10.954;2022-07-29T07:22:03;28.30;93.20
10344;DHT22;5217;43.960;10.954;2022-07-29T07:24:32;28.30;93.20
10344;DHT22;5217;43.960;10.954;2022-07-29T07:27:00;28.30;93.30
10344;DHT22;5217;43.960;10.954;2022-07-29T07:29:28;28.30;93.50
10344;DHT22;5217;43.960;10.954;2022-07-29T07:31:59;28.40;93.50
10344;DHT22;5217;43.960;10.954;2022-07-29T07:34:27;28.40;93.50
10344;DHT22;5217;43.960;10.954;2022-07-29T07:36:57;28.40;93.50
10344;DHT22;5217;43.960;10.954;2022-07-29T07:39:26;28.40;93.50
10344;DHT22;5217;43.960;10.954;2022-07-29T07:41:54;28.40;93.50
10344;DHT22;5217;43.960;10.954;2022-07-29T07:44:22;28.40;93.50
10344;DHT22;5217;43.960;10.954;2022-07-29T07:46:51;28.40;93.50
10344;DHT22;5217;43.960;10.954;2022-07-29T07:49:22;28.40;93.40
10344;DHT22;5217;43.960;10.954;2022-07-29T07:51:50;28.50;93.40
10344;DHT22;5217;43.960;10.954;2022-07-29T07:54:19;28.50;93.30
10344;DHT22;5217;43.960;10.954;2022-07-29T07:56:48;28.50;93.30
10344;DHT22;5217;43.960;10.954;2022-07-29T07:59:19;28.50;93.30
10344;DHT22;5217;43.960;10.954;2022-07-29T08:01:48;28.50;93.40
10344;DHT22;5217;43.960;10.954;2022-07-29T08:04:23;28.50;93.30
10344;DHT22;5217;43.960;10.954;2022-07-29T08:06:55;28.50;93.30
10344;DHT22;5217;43.960;10.954;2022-07-29T08:09:25;28.60;93.30
10344;DHT22;5217;43.960;10.954;2022-07-29T08:11:57;28.60;93.30
10344;DHT22;5217;43.960;10.954;2022-07-29T08:14:26;28.60;93.10
10344;DHT22;5217;43.960;10.954;2022-07-29T08:16:54;28.60;93.00
10344;DHT22;5217;43.960;10.954;2022-07-29T08:19:24;28.60;93.10
10344;DHT22;5217;43.960;10.954;2022-07-29T08:21:53;28.60;93.20
10344;DHT22;5217;43.960;10.954;2022-07-29T08:24:22;28.60;93.30
10344;DHT22;5217;43.960;10.954;2022-07-29T08:27:09;28.60;93.20
10344;DHT22;5217;43.960;10.954;2022-07-29T08:29:57;28.60;93.10
10344;DHT22;5217;43.960;10.954;2022-07-29T08:32:26;28.60;92.90
10344;DHT22;5217;43.960;10.954;2022-07-29T08:35:17;28.60;92.90
10344;DHT22;5217;43.960;10.954;2022-07-29T08:37:46;28.70;92.80
10344;DHT22;5217;43.960;10.954;2022-07-29T08:40:14;28.70;92.70
10344;DHT22;5217;43.960;10.954;2022-07-29T08:42:43;28.70;92.50
10344;DHT22;5217;43.960;10.954;2022-07-29T08:45:12;28.70;92.60
10344;DHT22;5217;43.960;10.954;2022-07-29T08:47:40;28.80;92.80
10344;DHT22;5217;43.960;10.954;2022-07-29T08:50:09;28.80;93.10
10344;DHT22;5217;43.960;10.954;2022-07-29T08:52:40;28.80;92.90
10344;DHT22;5217;43.960;10.954;2022-07-29T08:55:10;28.80;93.00
10344;DHT22;5217;43.960;10.954;2022-07-29T08:57:41;28.80;92.90
10344;DHT22;5217;43.960;10.954;2022-07-29T09:00:24;28.90;92.80
10344;DHT22;5217;43.960;10.954;2022-07-29T09:02:57;28.90;92.50
10344;DHT22;5217;43.960;10.954;2022-07-29T09:05:26;28.90;92.40
10344;DHT22;5217;43.960;10.954;2022-07-29T09:07:57;28.90;92.40
10344;DHT22;5217;43.960;10.954;2022-07-29T09:10:27;28.90;92.50
10344;DHT22;5217;43.960;10.954;2022-07-29T09:12:57;28.90;92.50
10344;DHT22;5217;43.960;10.954;2022-07-29T09:15:27;29.00;92.20
10344;DHT22;5217;43.960;10.954;2022-07-29T09:17:58;29.00;92.10
10344;DHT22;5217;43.960;10.954;2022-07-29T09:20:27;29.00;92.20
10344;DHT22;5217;43.960;10.954;2022-07-29T09:23:18;29.00;91.90
10344;DHT22;5217;43.960;10.954;2022-07-29T09:25:50;29.00;91.80
10344;DHT22;5217;43.960;10.954;2022-07-29T09:28:19;29.10;91.80
10344;DHT22;5217;43.960;10.954;2022-07-29T09:30:52;29.10;91.90
10344;DHT22;5217;43.960;10.954;2022-07-29T09:33:22;29.10;91.70
10344;DHT22;5217;43.960;10.954;2022-07-29T09:35:59;29.10;91.40
10344;DHT22;5217;43.960;10.954;2022-07-29T09:38:31;29.10;91.40
10344;DHT22;5217;43.960;10.954;2022-07-29T09:41:02;29.10;91.60
10344;DHT22;5217;43.960;10.954;2022-07-29T09:43:33;29.20;91.90
10344;DHT22;5217;43.960;10.954;2022-07-29T09:46:10;29.20;92.10
10344;DHT22;5217;43.960;10.954;2022-07-29T09:48:39;29.20;91.40
10344;DHT22;5217;43.960;10.954;2022-07-29T09:51:17;29.20;91.30
10344;DHT22;5217;43.960;10.954;2022-07-29T09:53:57;29.20;91.30
10344;DHT22;5217;43.960;10.954;2022-07-29T09:56:38;29.20;91.30
10344;DHT22;5217;43.960;10.954;2022-07-29T09:59:08;29.30;91.50
10344;DHT22;5217;43.960;10.954;2022-07-29T10:01:38;29.30;91.70
10344;DHT22;5217;43.960;10.954;2022-07-29T10:04:06;29.30;91.80
10344;DHT22;5217;43.960;10.954;2022-07-29T10:06:35;29.30;91.80
10344;DHT22;5217;43.960;10.954;2022-07-29T10:09:32;29.40;91.90
10344;DHT22;5217;43.960;10.954;2022-07-29T10:12:06;29.40;92.10
10344;DHT22;5217;43.960;10.954;2022-07-29T10:14:37;29.40;91.90
10344;DHT22;5217;43.960;10.954;2022-07-29T10:17:07;29.40;91.30
10344;DHT22;5217;43.960;10.954;2022-07-29T10:19:37;29.50;91.30
10344;DHT22;5217;43.960;10.954;2022-07-29T10:22:08;29.50;90.90
10344;DHT22;5217;43.960;10.954;2022-07-29T10:24:39;29.50;90.90
10344;DHT22;5217;43.960;10.954;2022-07-29T10:27:08;29.50;91.00
10344;DHT22;5217;43.960;10.954;2022-07-29T10:29:37;29.50;91.10
10344;DHT22;5217;43.960;10.954;2022-07-29T10:32:26;29.60;91.20
10344;DHT22;5217;43.960;10.954;2022-07-29T10:35:19;29.50;91.30
10344;DHT22;5217;43.960;10.954;2022-07-29T10:38:04;29.60;91.60
10344;DHT22;5217;43.960;10.954;2022-07-29T10:40:50;29.60;91.50
10344;DHT22;5217;43.960;10.954;2022-07-29T10:43:46;29.60;91.00
10344;DHT22;5217;43.960;10.954;2022-07-29T10:46:18;29.70;90.60
10344;DHT22;5217;43.960;10.954;2022-07-29T10:49:11;29.70;89.90
10344;DHT22;5217;43.960;10.954;2022-07-29T10:52:00;29.70;90.00
10344;DHT22;5217;43.960;10.954;2022-07-29T10:54:46;29.70;90.00
10344;DHT22;5217;43.960;10.954;2022-07-29T10:57:23;29.80;88.60
10344;DHT22;5217;43.960;10.954;2022-07-29T11:00:27;29.80;87.90
10344;DHT22;5217;43.960;10.954;2022-07-29T11:02:56;29.90;86.80
10344;DHT22;5217;43.960;10.954;2022-07-29T11:05:26;29.80;85.70
10344;DHT22;5217;43.960;10.954;2022-07-29T11:08:20;29.90;85.00
10344;DHT22;5217;43.960;10.954;2022-07-29T11:13:49;30.00;82.80
10344;DHT22;5217;43.960;10.954;2022-07-29T11:16:20;30.00;83.20
10344;DHT22;5217;43.960;10.954;2022-07-29T11:19:19;30.00;83.30
10344;DHT22;5217;43.960;10.954;2022-07-29T11:21:56;30.00;82.50
10344;DHT22;5217;43.960;10.954;2022-07-29T11:24:26;30.00;81.80
10344;DHT22;5217;43.960;10.954;2022-07-29T11:27:15;30.10;82.20
10344;DHT22;5217;43.960;10.954;2022-07-29T11:29:53;30.10;83.50
10344;DHT22;5217;43.960;10.954;2022-07-29T11:32:23;30.10;83.90
10344;DHT22;5217;43.960;10.954;2022-07-29T11:35:13;30.20;84.70
10344;DHT22;5217;43.960;10.954;2022-07-29T11:37:45;30.20;84.60
10344;DHT22;5217;43.960;10.954;2022-07-29T11:40:34;30.20;84.60
10344;DHT22;5217;43.960;10.954;2022-07-29T11:43:03;30.30;85.70
10344;DHT22;5217;43.960;10.954;2022-07-29T11:45:46;30.30;85.40
10344;DHT22;5217;43.960;10.954;2022-07-29T11:48:17;30.40;84.10
10344;DHT22;5217;43.960;10.954;2022-07-29T11:50:58;30.40;83.50
10344;DHT22;5217;43.960;10.954;2022-07-29T11:53:27;30.40;83.20
10344;DHT22;5217;43.960;10.954;2022-07-29T11:56:00;30.40;82.30
10344;DHT22;5217;43.960;10.954;2022-07-29T11:58:48;30.50;82.40
10344;DHT22;5217;43.960;10.954;2022-07-29T12:01:19;30.50;82.30
10344;DHT22;5217;43.960;10.954;2022-07-29T12:04:03;30.50;82.20
10344;DHT22;5217;43.960;10.954;2022-07-29T12:06:33;30.60;81.00
10344;DHT22;5217;43.960;10.954;2022-07-29T12:09:07;30.50;80.60
10344;DHT22;5217;43.960;10.954;2022-07-29T12:11:40;30.60;79.80
10344;DHT22;5217;43.960;10.954;2022-07-29T12:14:28;30.70;80.20
10344;DHT22;5217;43.960;10.954;2022-07-29T12:17:00;30.70;79.00
10344;DHT22;5217;43.960;10.954;2022-07-29T12:19:42;30.70;78.50
10344;DHT22;5217;43.960;10.954;2022-07-29T12:22:10;30.70;77.20
10344;DHT22;5217;43.960;10.954;2022-07-29T12:24:45;30.70;74.80
10344;DHT22;5217;43.960;10.954;2022-07-29T12:27:17;30.70;74.60
10344;DHT22;5217;43.960;10.954;2022-07-29T12:29:56;30.70;74.50
10344;DHT22;5217;43.960;10.954;2022-07-29T12:32:31;30.80;74.60
10344;DHT22;5217;43.960;10.954;2022-07-29T12:35:03;30.80;74.50
10344;DHT22;5217;43.960;10.954;2022-07-29T12:37:36;30.80;74.30
10344;DHT22;5217;43.960;10.954;2022-07-29T12:40:09;30.90;73.90
10344;DHT22;5217;43.960;10.954;2022-07-29T12:42:39;30.90;73.50
10344;DHT22;5217;43.960;10.954;2022-07-29T12:45:08;30.90;74.20
10344;DHT22;5217;43.960;10.954;2022-07-29T12:50:30;30.90;74.30
10344;DHT22;5217;43.960;10.954;2022-07-29T12:53:10;31.00;78.50
10344;DHT22;5217;43.960;10.954;2022-07-29T12:55:40;31.00;81.00
10344;DHT22;5217;43.960;10.954;2022-07-29T12:58:10;31.00;81.40
10344;DHT22;5217;43.960;10.954;2022-07-29T13:00:38;31.00;81.60
10344;DHT22;5217;43.960;10.954;2022-07-29T13:03:07;31.10;81.60
10344;DHT22;5217;43.960;10.954;2022-07-29T13:05:43;31.10;81.90
10344;DHT22;5217;43.960;10.954;2022-07-29T13:08:16;31.10;81.30
10344;DHT22;5217;43.960;10.954;2022-07-29T13:10:48;31.20;81.20
10344;DHT22;5217;43.960;10.954;2022-07-29T13:13:17;31.20;81.60
10344;DHT22;5217;43.960;10.954;2022-07-29T13:15:46;31.20;81.90
10344;DHT22;5217;43.960;10.954;2022-07-29T13:18:27;31.20;82.30
10344;DHT22;5217;43.960;10.954;2022-07-29T13:21:10;31.20;82.80
10344;DHT22;5217;43.960;10.954;2022-07-29T13:23:39;31.20;82.90
10344;DHT22;5217;43.960;10.954;2022-07-29T13:26:08;31.20;82.90
10344;DHT22;5217;43.960;10.954;2022-07-29T13:28:38;31.20;82.40
10344;DHT22;5217;43.960;10.954;2022-07-29T13:31:10;31.20;82.30
10344;DHT22;5217;43.960;10.954;2022-07-29T13:33:38;31.20;82.30
10344;DHT22;5217;43.960;10.954;2022-07-29T13:36:08;31.20;81.80
10344;DHT22;5217;43.960;10.954;2022-07-29T13:38:37;31.30;81.70
10344;DHT22;5217;43.960;10.954;2022-07-29T13:41:05;31.20;81.20
10344;DHT22;5217;43.960;10.954;2022-07-29T13:43:34;31.30;80.50
10344;DHT22;5217;43.960;10.954;2022-07-29T13:46:02;31.30;80.50
10344;DHT22;5217;43.960;10.954;2022-07-29T13:48:31;31.30;80.50
10344;DHT22;5217;43.960;10.954;2022-07-29T13:50:59;31.30;79.30
10344;DHT22;5217;43.960;10.954;2022-07-29T13:53:29;31.30;77.70
10344;DHT22;5217;43.960;10.954;2022-07-29T13:55:58;31.30;77.60
10344;DHT22;5217;43.960;10.954;2022-07-29T13:58:26;31.30;77.00
10344;DHT22;5217;43.960;10.954;2022-07-29T14:00:56;31.30;76.10
10344;DHT22;5217;43.960;10.954;2022-07-29T14:03:25;31.30;75.90
10344;DHT22;5217;43.960;10.954;2022-07-29T14:05:53;31.30;75.50
10344;DHT22;5217;43.960;10.954;2022-07-29T14:08:23;31.40;74.90
10344;DHT22;5217;43.960;10.954;2022-07-29T14:10:53;31.40;74.20
10344;DHT22;5217;43.960;10.954;2022-07-29T14:13:21;31.40;73.80
10344;DHT22;5217;43.960;10.954;2022-07-29T14:15:52;31.40;73.00
10344;DHT22;5217;43.960;10.954;2022-07-29T14:18:22;31.40;73.20
10344;DHT22;5217;43.960;10.954;2022-07-29T14:20:50;31.40;73.40
10344;DHT22;5217;43.960;10.954;2022-07-29T14:23:19;31.40;73.70
10344;DHT22;5217;43.960;10.954;2022-07-29T14:25:47;31.40;73.30
10344;DHT22;5217;43.960;10.954;2022-07-29T14:28:18;31.40;73.30
10344;DHT22;5217;43.960;10.954;2022-07-29T14:30:47;31.40;73.90
10344;DHT22;5217;43.960;10.954;2022-07-29T14:33:15;31.50;72.60
10344;DHT22;5217;43.960;10.954;2022-07-29T14:35:45;31.40;72.20
10344;DHT22;5217;43.960;10.954;2022-07-29T14:38:16;31.40;72.40
10344;DHT22;5217;43.960;10.954;2022-07-29T14:40:45;31.40;73.30
10344;DHT22;5217;43.960;10.954;2022-07-29T14:43:18;31.40;72.10
10344;DHT22;5217;43.960;10.954;2022-07-29T14:45:47;31.40;72.20
10344;DHT22;5217;43.960;10.954;2022-07-29T14:48:17;31.40;72.80
10344;DHT22;5217;43.960;10.954;2022-07-29T14:50:45;31.40;72.80
10344;DHT22;5217;43.960;10.954;2022-07-29T14:53:14;31.40;70.70
10344;DHT22;5217;43.960;10.954;2022-07-29T14:55:42;31.50;71.00
10344;DHT22;5217;43.960;10.954;2022-07-29T14:58:11;31.50;71.70
10344;DHT22;5217;43.960;10.954;2022-07-29T15:00:44;31.50;72.50
10344;DHT22;5217;43.960;10.954;2022-07-29T15:03:13;31.50;73.40
10344;DHT22;5217;43.960;10.954;2022-07-29T15:05:49;31.50;73.90
10344;DHT22;5217;43.960;10.954;2022-07-29T15:08:18;31.50;74.50
10344;DHT22;5217;43.960;10.954;2022-07-29T15:10:47;31.50;74.60
10344;DHT22;5217;43.960;10.954;2022-07-29T15:13:15;31.50;75.00
10344;DHT22;5217;43.960;10.954;2022-07-29T15:15:45;31.50;75.00
10344;DHT22;5217;43.960;10.954;2022-07-29T15:18:14;31.50;75.30
10344;DHT22;5217;43.960;10.954;2022-07-29T15:20:51;31.60;74.70
10344;DHT22;5217;43.960;10.954;2022-07-29T15:23:20;31.60;74.80
10344;DHT22;5217;43.960;10.954;2022-07-29T15:25:48;31.60;74.30
10344;DHT22;5217;43.960;10.954;2022-07-29T15:28:16;31.60;73.60
10344;DHT22;5217;43.960;10.954;2022-07-29T15:30:46;31.60;73.70
10344;DHT22;5217;43.960;10.954;2022-07-29T15:33:15;31.60;73.60
10344;DHT22;5217;43.960;10.954;2022-07-29T15:35:43;31.70;73.60
10344;DHT22;5217;43.960;10.954;2022-07-29T15:38:12;31.60;73.20
10344;DHT22;5217;43.960;10.954;2022-07-29T15:40:41;31.60;73.50
10344;DHT22;5217;43.960;10.954;2022-07-29T15:43:10;31.70;73.60
10344;DHT22;5217;43.960;10.954;2022-07-29T15:45:40;31.60;74.00
10344;DHT22;5217;43.960;10.954;2022-07-29T15:48:30;31.60;74.40
10344;DHT22;5217;43.960;10.954;2022-07-29T15:51:00;31.60;75.10
10344;DHT22;5217;43.960;10.954;2022-07-29T15:53:28;31.60;75.30
10344;DHT22;5217;43.960;10.954;2022-07-29T15:55:59;31.50;75.40
10344;DHT22;5217;43.960;10.954;2022-07-29T15:58:27;31.50;75.50
10344;DHT22;5217;43.960;10.954;2022-07-29T16:00:56;31.50;75.70
10344;DHT22;5217;43.960;10.954;2022-07-29T16:03:24;31.50;75.80
10344;DHT22;5217;43.960;10.954;2022-07-29T16:05:54;31.50;77.10